createdAt,value
2022-09-28T00:01:18.081Z,96951.42945553208
2022-09-28T00:04:16.995Z,96954.33715972885
2022-09-28T00:07:16.455Z,96952.48727395522
2022-09-28T00:11:17.772Z,96954.66121758979
2022-09-28T00:14:16.359Z,96954.29507642452
2022-09-28T00:17:17.340Z,96948.34741835123
2022-09-28T00:21:18.768Z,96952.79489155312
2022-09-28T00:24:17.331Z,96959.84619586427
2022-09-28T00:27:18.215Z,96959.48329795877
2022-09-28T00:31:17.165Z,96956.8211942077
2022-09-28T00:34:16.993Z,96951.31737138945
2022-09-28T00:37:19.984Z,96951.29102498472
2022-09-28T00:41:16.427Z,96945.15081995794
2022-09-28T00:44:50.497Z,96949.96815727452
2022-09-28T00:47:37.575Z,96951.3764094694
2022-09-28T00:51:16.954Z,96936.68861316612
2022-09-28T00:54:16.964Z,96933.59348095453
2022-09-28T00:57:18.006Z,96930.63488841262
2022-09-28T01:01:17.186Z,96928.48244100576
2022-09-28T01:04:17.180Z,96924.10572417939
2022-09-28T01:07:18.799Z,96929.5492907445
2022-09-28T01:11:17.104Z,96926.84266353128
2022-09-28T01:14:17.640Z,96932.6717591987
2022-09-28T01:17:23.372Z,96934.50788709018
2022-09-28T01:21:19.655Z,96944.00492713055
2022-09-28T01:24:38.844Z,96943.77859214252
2022-09-28T01:27:24.848Z,96941.61971317939
2022-09-28T01:31:19.461Z,96941.47342340952
2022-09-28T01:34:23.143Z,96934.08272430126
2022-09-28T01:37:20.728Z,96928.3185279185
2022-09-28T01:41:20.228Z,96934.55020443349
2022-09-28T01:44:19.072Z,96937.02588698456
2022-09-28T01:47:21.210Z,96932.60040785048
2022-09-28T01:51:23.196Z,96925.11665874955
2022-09-28T01:54:20.948Z,96924.69795960143
2022-09-28T01:57:21.152Z,96924.90287186988
2022-09-28T02:01:20.418Z,96923.66062546648
2022-09-28T02:04:20.851Z,96921.44540276588
2022-09-28T02:07:20.672Z,96921.93474200871
2022-09-28T02:11:20.071Z,96911.7283420589
2022-09-28T02:14:17.890Z,96912.57624284756
2022-09-28T02:17:16.696Z,96914.81209950017
2022-09-28T02:21:22.586Z,96916.85490146016
2022-09-28T02:24:26.367Z,96910.11800395433
2022-09-28T02:27:25.104Z,96911.6207347841
2022-09-28T02:31:16.267Z,96914.52649669288
2022-09-28T02:34:16.895Z,96915.66469788548
2022-09-28T02:37:16.546Z,96909.19829346321
2022-09-28T02:41:30.241Z,96905.36553506363
2022-09-28T02:44:46.268Z,96900.96914236528
2022-09-28T02:47:28.222Z,96903.30699679235
2022-09-28T02:51:26.134Z,96903.15980203207
2022-09-28T02:54:32.395Z,96899.52599945941
2022-09-28T02:57:29.849Z,96903.86101193444
2022-09-28T03:01:25.331Z,96911.72033401855
2022-09-28T03:04:27.811Z,96918.84134050603
2022-09-28T03:07:23.634Z,96914.09730445257
2022-09-28T03:11:21.038Z,96911.4448451799
2022-09-28T03:14:17.147Z,96913.35948918998
2022-09-28T03:17:19.461Z,96916.23875552574
2022-09-28T03:21:16.421Z,96908.76500649184
2022-09-28T03:24:16.742Z,96912.36811901633
2022-09-28T03:27:16.916Z,96913.54916029309
2022-09-28T03:31:16.499Z,96907.91812849895
2022-09-28T03:34:16.774Z,96905.5621797122
2022-09-28T03:37:16.784Z,96908.45962072915
2022-09-28T03:41:16.073Z,96910.1098918948
2022-09-28T03:44:16.524Z,96908.66246583404
2022-09-28T03:47:18.410Z,96906.3075621234
2022-09-28T03:51:16.006Z,96894.71960761241
2022-09-28T03:54:16.291Z,96892.9951443533
2022-09-28T03:57:16.294Z,96890.6929325301
2022-09-28T04:01:17.720Z,96892.0384667986
2022-09-28T04:04:16.900Z,96892.58358229637
2022-09-28T04:07:16.396Z,96891.99673353169
2022-09-28T04:11:15.894Z,96895.44011429274
2022-09-28T04:14:16.274Z,96895.44026777084
2022-09-28T04:17:16.211Z,96886.90456570059
2022-09-28T04:21:18.288Z,96881.49725366312
2022-09-28T04:24:17.417Z,96874.27778865483
2022-09-28T04:31:18.232Z,96874.18434151147
2022-09-28T04:34:20.075Z,96874.70087295274
2022-09-28T04:37:16.294Z,96871.49047671672
2022-09-28T04:41:16.023Z,96872.53731249357
2022-09-28T04:44:16.330Z,96876.49158295643
2022-09-28T04:47:16.442Z,96881.81969397713
2022-09-28T04:51:16.648Z,96888.89399752984
2022-09-28T04:54:17.236Z,96891.38396204101
2022-09-28T04:57:16.995Z,96897.2772085069
2022-09-28T05:01:18.861Z,96893.43435456834
2022-09-28T05:11:16.527Z,96897.55116339106
2022-09-28T05:14:16.908Z,96891.3590374222
2022-09-28T05:17:16.642Z,96891.32443277675
2022-09-28T05:21:19.768Z,96898.75822528657
2022-09-28T05:24:17.073Z,96895.98502950947
2022-09-28T05:27:17.291Z,96892.29013771012
2022-09-28T05:31:16.849Z,96899.72418912986
2022-09-28T05:34:16.974Z,96901.92101788973
2022-09-28T05:37:16.962Z,96900.69765803848
2022-09-28T05:41:16.590Z,96908.18070670197
2022-09-28T05:44:17.430Z,96910.44147041831
2022-09-28T05:47:16.985Z,96918.1205329649
2022-09-28T05:51:16.871Z,96916.41887352799
2022-09-28T05:54:17.253Z,96917.88149731769
2022-09-28T05:57:17.132Z,96914.70677326535
2022-09-28T06:01:16.693Z,96914.79642207171
2022-09-28T06:04:17.252Z,96914.53161273486
2022-09-28T06:07:17.128Z,96915.52897735045
2022-09-28T06:11:16.450Z,96915.82803704453
2022-09-28T06:14:16.913Z,96916.37777621274
2022-09-28T06:17:17.096Z,96913.46445971048
2022-09-28T06:21:16.560Z,96917.48795639498
2022-09-28T06:24:17.015Z,96917.1725240775
2022-09-28T06:27:17.062Z,96911.16963952342
2022-09-28T06:31:16.448Z,96915.75389172003
2022-09-28T06:34:17.568Z,96915.80372716069
2022-09-28T06:37:16.653Z,96914.96415480808
2022-09-28T06:41:16.617Z,96917.38024323767
2022-09-28T06:44:16.959Z,96906.09968610738
2022-09-28T06:51:16.548Z,96905.76767824257
2022-09-28T07:01:16.743Z,96905.49493060453
2022-09-28T07:04:17.061Z,96907.47906311249
2022-09-28T07:11:16.145Z,96901.2704583658
2022-09-28T07:14:34.210Z,96897.54142023163
2022-09-28T07:17:16.391Z,96894.2926814734
2022-09-28T07:21:27.821Z,96904.17944161317
2022-09-28T07:24:17.478Z,96904.56571364637
2022-09-28T07:27:17.162Z,96914.24849521226
2022-09-28T07:31:17.297Z,96914.77243008494
2022-09-28T07:34:18.954Z,96919.29810407064
2022-09-28T07:37:19.211Z,96923.3794690022
2022-09-28T07:41:22.641Z,96925.90608063825
2022-09-28T07:44:19.212Z,96928.64254958894
2022-09-28T07:47:17.373Z,96928.62981020873
2022-09-28T07:51:18.016Z,96925.10431877572
2022-09-28T07:54:18.110Z,96930.18380168053
2022-09-28T08:11:17.197Z,96960.94604952342
2022-09-28T08:14:17.387Z,96948.96062403427
2022-09-28T08:21:48.329Z,96946.15699407079
2022-09-28T08:24:16.975Z,96952.6066635131
2022-09-28T08:27:16.893Z,96954.92781995282
2022-09-28T08:31:16.791Z,96961.92121816243
2022-09-28T08:34:17.679Z,96960.63275966866
2022-09-28T08:41:24.179Z,96959.35442086676
2022-09-28T08:44:18.559Z,96960.0390899003
2022-09-28T08:51:21.077Z,96963.61496043755
2022-09-28T08:54:30.047Z,96965.68073606149
2022-09-28T08:57:20.334Z,96966.89071054681
2022-09-28T09:01:18.970Z,96963.31941173317
2022-09-28T09:04:17.802Z,96962.33828490751
2022-09-28T09:07:32.068Z,96947.3220010594
2022-09-28T09:11:29.850Z,96952.43409453725
2022-09-28T09:14:35.397Z,96953.4180475584
2022-09-28T09:17:28.503Z,96950.34075123751
2022-09-28T09:21:33.732Z,96950.57148989404
2022-09-28T09:24:24.068Z,96955.83894253922
2022-09-28T09:27:38.325Z,96955.28994811424
2022-09-28T09:31:32.542Z,96956.34373280403
2022-09-28T09:34:36.953Z,96950.89592506851
2022-09-28T09:37:33.464Z,96956.02014622702
2022-09-28T09:41:29.980Z,96958.06690613348
2022-09-28T09:51:23.447Z,96955.32606644643
2022-09-28T09:54:23.202Z,96969.63352038688
2022-09-28T09:57:21.870Z,96964.49776109956
2022-09-28T10:01:20.551Z,96974.8673153783
2022-09-28T10:04:22.526Z,96977.08981716655
2022-09-28T10:07:23.460Z,96983.54353857867
2022-09-28T10:11:19.468Z,96982.2480723187
2022-09-28T10:14:19.282Z,96985.75622882058
2022-09-28T10:17:18.805Z,96992.4141795984
2022-09-28T10:21:20.325Z,96982.93806879186
2022-09-28T10:24:28.853Z,96990.76259723224
2022-09-28T10:27:20.403Z,96986.76979351103
2022-09-28T10:31:50.220Z,96985.98675140693
2022-09-28T10:34:24.171Z,96984.53394041237
2022-09-28T10:37:18.031Z,96989.21434181453
2022-09-28T10:41:17.935Z,96999.90151741053
2022-09-28T10:44:19.408Z,96997.65262535376
2022-09-28T10:47:21.467Z,96999.1638914916
2022-09-28T10:51:17.196Z,96991.06503295142
2022-09-28T10:54:19.588Z,96984.16784326072
2022-09-28T10:57:27.260Z,96976.27147380792
2022-09-28T11:01:21.782Z,96965.49770100968
2022-09-28T11:04:22.870Z,96965.18312890589
2022-09-28T11:07:18.980Z,96970.18398347108
2022-09-28T11:11:17.986Z,96961.01470897016
2022-09-28T11:14:25.605Z,96953.2723666464
2022-09-28T11:17:24.444Z,96955.53808488612
2022-09-28T11:21:18.124Z,96946.97954129803
2022-09-28T11:24:19.950Z,96942.69534349011
2022-09-28T11:27:22.761Z,96941.16075404167
2022-09-28T11:31:25.214Z,96946.32186670028
2022-09-28T11:34:31.063Z,96936.96599278753
2022-09-28T11:37:42.880Z,96948.36764231013
2022-09-28T11:41:30.342Z,96945.79693619271
2022-09-28T11:44:37.175Z,96945.84567243053
2022-09-28T11:47:36.685Z,96939.07826541242
2022-09-28T11:51:24.155Z,96934.44596173022
2022-09-28T11:54:24.296Z,96922.21419619651
2022-09-28T11:57:21.280Z,96928.11794004797
2022-09-28T12:01:22.511Z,96917.4841123518
2022-09-28T12:04:22.810Z,96909.46266363729
2022-09-28T12:07:22.034Z,96906.18184313837
2022-09-28T12:11:22.615Z,96905.69998810643
2022-09-28T12:14:22.297Z,96904.12536341896
2022-09-28T12:17:23.853Z,96897.07028685881
2022-09-28T12:21:31.412Z,96886.36087365543
2022-09-28T12:24:22.660Z,96889.75593274135
2022-09-28T12:27:24.057Z,96889.1386662105
2022-09-28T12:31:22.626Z,96886.78115548842
2022-09-28T12:34:16.970Z,96886.12619767404
2022-09-28T12:37:31.239Z,96883.81141347146
2022-09-28T12:41:39.678Z,96884.38022473054
2022-09-28T12:44:31.713Z,96884.42872719781
2022-09-28T12:48:09.620Z,96879.24531565311
2022-09-28T12:51:31.209Z,96880.405393525
2022-09-28T12:54:34.718Z,96880.18410082658
2022-09-28T12:57:36.073Z,96875.1300451547
2022-09-28T13:01:34.368Z,96874.46135812395
2022-09-28T13:05:01.201Z,96873.2153611298
2022-09-28T13:07:26.950Z,96871.79272813407
2022-09-28T13:11:24.761Z,96870.26910505057
2022-09-28T13:14:38.023Z,96864.8469702894
2022-09-28T13:17:23.969Z,96866.85761018055
2022-09-28T13:21:28.004Z,96876.07466015291
2022-09-28T13:24:32.096Z,96875.26334492973
2022-09-28T13:27:25.128Z,96872.92769190257
2022-09-28T13:31:21.762Z,96880.4226812979
2022-09-28T13:34:23.677Z,96879.57235403726
2022-09-28T13:37:22.317Z,96875.90335076067
2022-09-28T13:41:21.198Z,96873.42310315189
2022-09-28T13:44:31.981Z,96873.25090351267
2022-09-28T13:47:30.886Z,96879.98615001902
2022-09-28T13:51:30.283Z,96879.81632972092
2022-09-28T13:54:26.177Z,96882.91216276368
2022-09-28T13:57:24.191Z,96883.69267797045
2022-09-28T14:01:21.026Z,96887.9328993543
2022-09-28T14:04:18.220Z,96889.12445821014
2022-09-28T14:07:23.405Z,96889.65913068269
2022-09-28T14:22:10.709Z,96887.43626358979
2022-09-28T14:24:29.417Z,96891.91390265024
2022-09-28T14:27:37.264Z,96886.88134508887
2022-09-28T14:31:24.854Z,96891.97075110851
2022-09-28T14:34:30.886Z,96883.2586822019
2022-09-28T14:41:36.740Z,96887.87497529248
2022-09-28T14:44:16.662Z,96903.465007313
2022-09-28T14:47:33.968Z,96900.12942725279
2022-09-28T14:51:56.375Z,96894.53590639234
2022-09-28T14:54:20.191Z,96894.08353257255
2022-09-28T14:57:19.857Z,96885.46387069781
2022-09-28T15:01:20.687Z,96888.5736804008
2022-09-28T15:04:18.197Z,96890.89182628473
2022-09-28T15:07:20.708Z,96883.60171534256
2022-09-28T15:11:21.194Z,96879.03787380763
2022-09-28T15:14:17.859Z,96878.61017928181
2022-09-28T15:17:22.370Z,96882.66133674877
2022-09-28T15:21:17.509Z,96885.9592451376
2022-09-28T15:24:24.989Z,96881.9516671314
2022-09-28T15:27:19.289Z,96883.96511107538
2022-09-28T15:31:19.708Z,96875.99736272162
2022-09-28T15:35:23.797Z,96876.48865380498
2022-09-28T15:37:20.523Z,96886.72878261216
2022-09-28T15:41:16.859Z,96893.43925968747
2022-09-28T15:44:28.060Z,96896.40188735524
2022-09-28T15:47:25.836Z,96895.28118891869
2022-09-28T15:51:17.070Z,96899.00773586241
2022-09-28T15:54:24.073Z,96898.02945531545
2022-09-28T15:57:32.769Z,96892.03835688737
2022-09-28T16:01:27.728Z,96883.1764461752
2022-09-28T16:04:35.826Z,96887.7136704513
2022-09-28T16:07:20.877Z,96887.82824004708
2022-09-28T16:11:21.287Z,96886.20549062983
2022-09-28T16:14:18.907Z,96889.58904126254
2022-09-28T16:17:23.043Z,96881.01954422674
2022-09-28T16:21:28.974Z,96881.80382160743
2022-09-28T16:24:21.462Z,96876.81122186416
2022-09-28T16:27:25.650Z,96873.16924922404
2022-09-28T16:31:28.310Z,96880.47958334185
2022-09-28T16:34:19.397Z,96880.36559838714
2022-09-28T16:37:30.002Z,96877.02032499388
2022-09-28T16:41:22.097Z,96878.18643886449
2022-09-28T16:44:23.197Z,96878.86663945453
2022-09-28T16:47:17.453Z,96885.3985269244
2022-09-28T16:51:17.561Z,96886.12722492605
2022-09-28T16:55:39.415Z,96892.76554671803
2022-09-28T16:57:16.965Z,96881.98746802896
2022-09-28T17:01:16.652Z,96878.45892303047
2022-09-28T17:04:17.096Z,96876.42197144717
2022-09-28T17:07:18.055Z,96873.11706387022
2022-09-28T17:11:23.620Z,96864.67269428588
2022-09-28T17:14:16.580Z,96876.19969146179
2022-09-28T17:17:17.302Z,96883.33892548333
2022-09-28T17:21:18.493Z,96880.4873472376
2022-09-28T17:24:17.527Z,96875.58184262035
2022-09-28T17:27:18.773Z,96880.32136627205
2022-09-28T17:31:16.607Z,96883.18802420438
2022-09-28T17:34:16.798Z,96889.46938805985
2022-09-28T17:37:16.577Z,96887.65438391888
2022-09-28T17:41:20.499Z,96879.03259868818
2022-09-28T17:44:16.764Z,96869.6050843219
2022-09-28T17:47:16.744Z,96870.82119589172
2022-09-28T17:51:16.276Z,96890.86329467803
2022-09-28T17:54:20.655Z,96895.94274546685
2022-09-28T17:57:16.721Z,96902.5853122692
2022-09-28T18:01:16.723Z,96924.47968309966
2022-09-28T18:04:39.772Z,96926.07377110436
2022-09-28T18:07:17.493Z,96904.68217922449
2022-09-28T18:11:17.681Z,96891.57952494531
2022-09-28T18:14:16.999Z,96881.0368306211
2022-09-28T18:17:17.098Z,96886.8374461368
2022-09-28T18:21:16.425Z,96897.58892652947
2022-09-28T18:24:17.106Z,96898.64410232112
2022-09-28T18:27:17.082Z,96898.01551767612
2022-09-28T18:31:19.299Z,96907.87575020653
2022-09-28T18:34:17.028Z,96916.02380255228
2022-09-28T18:37:17.777Z,96922.84944746796
2022-09-28T18:41:16.238Z,96932.16903432379
2022-09-28T18:44:16.225Z,96937.78201778306
2022-09-28T18:47:16.248Z,96934.59875273413
2022-09-28T18:51:16.258Z,96929.54175143158
2022-09-28T18:54:17.308Z,96925.59854202026
2022-09-28T18:57:17.669Z,96929.9057115004
2022-09-28T19:01:30.749Z,96925.5569491837
2022-09-28T19:04:17.532Z,96922.61224454817
2022-09-28T19:07:17.414Z,96925.89877041959
2022-09-28T19:11:16.356Z,96919.31223537812
2022-09-28T19:14:16.446Z,96924.61625198586
2022-09-28T19:17:16.482Z,96922.24372043497
2022-09-28T19:21:16.651Z,96912.60158921307
2022-09-28T19:24:17.998Z,96926.06957167671
2022-09-28T19:27:16.954Z,96920.98928660432
2022-09-28T19:31:17.317Z,96942.54594648814
2022-09-28T19:34:17.777Z,96943.31053165288
2022-09-28T19:37:16.974Z,96944.9295230645
2022-09-28T19:41:44.732Z,96948.50904474274
2022-09-28T19:44:26.395Z,96948.54140146606
2022-09-28T19:47:20.181Z,96946.52884020846
2022-09-28T19:51:17.302Z,96952.69298043534
2022-09-28T19:54:17.822Z,96958.10243679507
2022-09-28T19:57:19.031Z,96954.56342847995
2022-09-28T20:01:16.350Z,96966.17045119808
2022-09-28T20:04:16.725Z,96972.34628110945
2022-09-28T20:07:16.666Z,96969.56605520773
2022-09-28T20:11:16.178Z,96955.22017445881
2022-09-28T20:14:16.603Z,96970.90373279832
2022-09-28T20:17:16.607Z,96963.85899187894
2022-09-28T20:21:20.125Z,96963.97724026756
2022-09-28T20:24:17.457Z,96954.55750068412
2022-09-28T20:27:16.885Z,96955.77155228452
2022-09-28T20:31:18.718Z,96952.87063991986
2022-09-28T20:34:17.608Z,96942.9294504622
2022-09-28T20:37:17.764Z,96956.2916968736
2022-09-28T20:41:20.724Z,96969.21538080207
2022-09-28T20:44:17.813Z,96967.19454237405
2022-09-28T20:47:17.709Z,96975.73111642174
2022-09-28T20:51:18.725Z,96965.43730571528
2022-09-28T20:54:16.904Z,96980.33776235106
2022-09-28T20:57:17.892Z,96972.99078677107
2022-09-28T21:01:20.747Z,96972.22566976227
2022-09-28T21:04:17.014Z,96972.86412723578
2022-09-28T21:07:16.788Z,96973.86890095864
2022-09-28T21:11:18.769Z,96973.00994505564
2022-09-28T21:14:17.454Z,96966.34947253761
2022-09-28T21:17:17.269Z,96961.632299958
2022-09-28T21:21:18.497Z,96967.00999419576
2022-09-28T21:24:16.673Z,96975.81851229304
2022-09-28T21:27:16.633Z,96976.23902350735
2022-09-28T21:31:15.895Z,96987.33687197098
2022-09-28T21:34:20.518Z,96979.25293807765
2022-09-28T21:37:16.222Z,96986.54487741967
2022-09-28T21:41:19.489Z,96979.00701129196
2022-09-28T21:44:20.104Z,96975.18053824837
2022-09-28T21:47:20.027Z,96972.09987696142
2022-09-28T21:51:16.779Z,96975.98503082611
2022-09-28T21:54:17.189Z,96974.68207337194
2022-09-28T21:57:19.096Z,96979.47767996066
2022-09-28T22:01:20.998Z,96974.42113414149
2022-09-28T22:04:16.987Z,96974.5482622431
2022-09-28T22:07:17.124Z,96980.27719298586
2022-09-28T22:11:17.699Z,96981.47372469156
2022-09-28T22:14:16.647Z,96976.01312279698
2022-09-28T22:17:16.568Z,96971.2087643827
2022-09-28T22:21:18.458Z,96979.71845286361
2022-09-28T22:24:16.711Z,96975.15289977491
2022-09-28T22:27:16.713Z,96978.06059587335
2022-09-28T22:31:19.252Z,96972.53935410063
2022-09-28T22:34:17.462Z,96975.71084757031
2022-09-28T22:37:17.405Z,96975.95679225397
2022-09-28T22:41:18.213Z,96981.91761043196
2022-09-28T22:44:16.522Z,96974.93263901639
2022-09-28T22:47:16.620Z,96976.59683890876
2022-09-28T22:51:16.544Z,96969.42593525653
2022-09-28T22:54:16.748Z,96971.80583386573
2022-09-28T22:57:16.651Z,96969.6705037838
2022-09-28T23:01:19.751Z,96974.4277177715
2022-09-28T23:04:17.580Z,96977.07347326718
2022-09-28T23:07:17.266Z,96982.51386477424
2022-09-28T23:11:16.557Z,96981.4912442554
2022-09-28T23:14:16.546Z,96974.73711150028
2022-09-28T23:17:16.461Z,96968.68648468379
2022-09-28T23:21:19.610Z,96983.73939470647
2022-09-28T23:24:16.713Z,96966.6827542415
2022-09-28T23:27:16.510Z,96971.73012433815
2022-09-28T23:31:18.711Z,96972.25154745238
2022-09-28T23:34:17.229Z,96964.10748663108
2022-09-28T23:37:17.084Z,96981.13665855321
2022-09-28T23:41:16.936Z,96970.87260162184
2022-09-28T23:44:17.283Z,96973.34806327891
2022-09-28T23:47:17.183Z,96980.1098635352
2022-09-28T23:51:16.466Z,96973.1675040607
2022-09-28T23:54:16.565Z,96959.13744187364
2022-09-28T23:57:16.419Z,96961.1863695529
